F/V Le Dolmen — FHMD — position and weather

sailwx.info

Track history (hours):
 
Tides and Currents Weather Stations Pressure Air Temp Water Temp Dewpoint Dewpoint Depression Visibility Wind Speed Wind Dir Waves Ship Positions

F/V Le Dolmen

Last reported at 2017-Jan-24 05:22 UTC. Time now 2017-Jan-24 07:10 UTC.
Position N 47°44' W 003°22'.

Length 18 m.

Type: Fishing. MMSI: 228374000.

Date/timePositionNaut miles runAvg speedWind from/ knotsBaromVisibWave heightAir tempDewpointWater temp
2017-Jan-24 05:22N 47°44' W 003°22'0 0.0
2017-Jan-23 23:15N 47°44' W 003°22'0 0.0
2017-Jan-23 21:12N 47°44' W 003°22'0 0.0
2017-Jan-23 20:04N 47°44' W 003°22'0 0.0
2017-Jan-23 19:09N 47°44' W 003°22'0 0.0
2017-Jan-23 18:27N 47°44' W 003°22'0 0.0
2017-Jan-23 17:23N 47°44' W 003°22'0 0.0
2017-Jan-23 16:33N 47°44' W 003°22'0 0.0
2017-Jan-23 15:33N 47°44' W 003°22'0 0.0
2017-Jan-23 14:33N 47°44' W 003°22'0 0.0
2017-Jan-23 13:33N 47°44' W 003°22'0 0.0
2017-Jan-23 12:33N 47°44' W 003°22'0 0.0
2017-Jan-23 11:33N 47°44' W 003°22'0 0.0
2017-Jan-23 10:34N 47°44' W 003°22'0 0.0
2017-Jan-23 09:33N 47°44' W 003°22'0 0.0
2017-Jan-23 08:34N 47°44' W 003°22'0 0.0
2017-Jan-23 07:34N 47°44' W 003°22'0 0.0
2017-Jan-23 06:34N 47°44' W 003°22'0 0.0
2017-Jan-23 05:34N 47°44' W 003°22'0 0.0
2017-Jan-23 04:34N 47°44' W 003°22'0 0.0
2017-Jan-23 03:34N 47°44' W 003°22'0 0.0
2017-Jan-23 02:34N 47°44' W 003°22'0 0.0
2017-Jan-23 01:34N 47°44' W 003°22'0 0.0
2017-Jan-23 00:34N 47°44' W 003°22'0 0.1
2017-Jan-22 23:33N 47°44' W 003°22'0 0.1
2017-Jan-22 22:34N 47°44' W 003°22'8 8.0
2017-Jan-22 21:34N 47°36' W 003°18'10 9.6
2017-Jan-22 20:33N 47°28' W 003°11'9 9.1
2017-Jan-22 19:33N 47°20' W 003°03'9 9.2
2017-Jan-22 18:33N 47°12' W 002°57'2 1.5
2017-Jan-22 17:33N 47°13' W 002°56'3 2.8
2017-Jan-22 16:33N 47°12' W 002°60'3 3.1
2017-Jan-22 15:33N 47°09' W 002°58'3 3.1
2017-Jan-22 14:33N 47°06' W 003°00'2 2.4
2017-Jan-22 13:33N 47°08' W 003°03'3 3.0
2017-Jan-22 12:33N 47°05' W 003°04'3 3.0
2017-Jan-22 11:33N 47°02' W 003°03'3 3.0
2017-Jan-22 10:33N 46°60' W 002°60'3 3.1
2017-Jan-22 09:33N 46°58' W 002°56'3 3.0
2017-Jan-22 08:27N 46°58' W 002°51'3 3.2
2017-Jan-22 07:33N 46°59' W 002°48'3 2.6
2017-Jan-22 06:33N 46°57' W 002°45'3 3.0
2017-Jan-22 05:30N 46°56' W 002°41'1 1.2
2017-Jan-22 04:33N 46°55' W 002°42'3 2.9
2017-Jan-22 03:26N 46°58' W 002°45'4 2.0
2017-Jan-22 01:16N 46°55' W 002°40'3 2.6
2017-Jan-22 00:10N 46°58' W 002°40'2 2.4
2017-Jan-21 23:08N 46°58' W 002°43'15 1.4
2017-Jan-21 12:28N 46°43' W 002°48'3 1.7
2017-Jan-21 10:33N 46°40' W 002°49'3 2.8
2017-Jan-21 09:33N 46°42' W 002°51'2 2.2
2017-Jan-21 08:33N 46°43' W 002°48'4 3.1
2017-Jan-21 07:23N 46°44' W 002°43'7 8.5
2017-Jan-21 06:34N 46°49' W 002°37'3 2.6
2017-Jan-21 05:33N 46°51' W 002°40'3 3.1
2017-Jan-21 04:33N 46°53' W 002°43'3 2.8
2017-Jan-21 03:33N 46°56' W 002°43'2 1.9
2017-Jan-21 02:33N 46°57' W 002°41'3 2.8
2017-Jan-21 01:33N 46°57' W 002°45'3 2.7
2017-Jan-21 00:33N 46°59' W 002°48'3 2.9
2017-Jan-20 23:33N 47°00' W 002°44'3 3.2
2017-Jan-20 22:27N 46°57' W 002°42'2 2.2
2017-Jan-20 21:33N 46°56' W 002°39'3 2.5
2017-Jan-20 20:32N 46°59' W 002°41'3 3.0
2017-Jan-20 19:33N 46°59' W 002°45'3 3.2
2017-Jan-20 18:33N 46°59' W 002°50'3 3.2
2017-Jan-20 17:33N 46°59' W 002°54'3 1.3
2017-Jan-20 15:21N 47°00' W 002°51'2 3.0
2017-Jan-20 14:33N 46°59' W 002°54'2 2.0
2017-Jan-20 13:30N 46°60' W 002°56'3 3.0
2017-Jan-20 12:33N 47°02' W 002°58'2 2.1
2017-Jan-20 11:33N 47°00' W 002°58'2 2.0
2017-Jan-20 10:21N 46°59' W 002°55'2 1.7
2017-Jan-20 09:09N 46°58' W 002°52'2 3.0
2017-Jan-20 08:33N 46°57' W 002°55'16 5.2
2017-Jan-20 05:30N 47°10' W 002°42'9 9.0
2017-Jan-20 04:33N 47°18' W 002°35'4 4.4
2017-Jan-20 03:32N 47°21' W 002°31'0 0.0
2017-Jan-20 02:32N 47°21' W 002°31'2 2.0
2017-Jan-20 01:33N 47°20' W 002°33'9 8.7
2017-Jan-20 00:33N 47°16' W 002°45'1 1.5
2017-Jan-19 23:33N 47°15' W 002°47'2 1.9
2017-Jan-19 22:33N 47°13' W 002°47'3 3.1
2017-Jan-19 21:33N 47°10' W 002°49'3 2.8
2017-Jan-19 20:33N 47°08' W 002°49'3 3.1
2017-Jan-19 19:33N 47°05' W 002°50'3 2.8
2017-Jan-19 18:30N 47°02' W 002°52'3 3.1
2017-Jan-19 17:30N 46°59' W 002°52'3 2.1
2017-Jan-19 16:12N 47°00' W 002°56'1 2.2
2017-Jan-19 15:33N 46°60' W 002°54'1 0.7
2017-Jan-19 13:33N 46°59' W 002°52'1 0.7
2017-Jan-19 11:33N 46°59' W 002°50'2 2.0
2017-Jan-19 10:33N 46°60' W 002°53'2 2.3
2017-Jan-19 09:33N 46°59' W 002°50'3 2.6
2017-Jan-19 08:33N 46°58' W 002°53'3 2.7
2017-Jan-19 07:33N 46°58' W 002°57'2 2.1
2017-Jan-19 06:33N 46°59' W 002°60'3 3.0
2017-Jan-19 05:33N 46°58' W 002°56'2 1.5
2017-Jan-19 04:18N 46°59' W 002°55'16 5.8
2017-Jan-19 01:33N 47°12' W 002°41'11 9.6
2017-Jan-19 00:24N 47°21' W 002°31'0 0.0
2017-Jan-18 23:21N 47°21' W 002°31'27 0.6
2017-Jan-17 00:33N 46°58' W 002°52'3 2.8
2017-Jan-16 23:33N 46°60' W 002°56'3 3.1
2017-Jan-16 22:33N 47°02' W 002°58'3 3.3
2017-Jan-16 21:33N 47°06' W 003°00'3 3.4
2017-Jan-16 20:33N 47°09' W 002°59'4 3.6
2017-Jan-16 19:33N 47°12' W 002°60'0 0.2
2017-Jan-16 18:33N 47°12' W 002°60'3 2.9
2017-Jan-16 17:33N 47°09' W 002°59'3 2.9
2017-Jan-16 16:33N 47°06' W 002°60'3 2.8
2017-Jan-16 15:33N 47°04' W 002°57'1 0.6
2017-Jan-16 14:30N 47°04' W 002°58'3 3.3
2017-Jan-16 13:33N 47°07' W 003°00'2 2.3
2017-Jan-16 12:33N 47°09' W 002°59'3 3.4
2017-Jan-16 11:33N 47°11' W 002°54'2 1.6
2017-Jan-16 10:33N 47°12' W 002°56'3 2.8
2017-Jan-16 09:33N 47°10' W 002°59'3 2.8
2017-Jan-16 08:33N 47°10' W 002°55'2 1.8
2017-Jan-16 07:33N 47°10' W 002°57'2 2.4
2017-Jan-16 06:33N 47°12' W 002°56'3 2.9
2017-Jan-16 05:33N 47°13' W 002°52'5 5.4
2017-Jan-16 04:33N 47°16' W 002°45'8 8.4
2017-Jan-16 03:33N 47°20' W 002°34'2 0.9
2017-Jan-16 01:33N 47°19' W 002°37'9 9.2
2017-Jan-16 00:33N 47°16' W 002°49'3 3.0
2017-Jan-15 23:33N 47°15' W 002°53'3 2.7
2017-Jan-15 22:33N 47°13' W 002°55'2 2.5
2017-Jan-15 21:33N 47°11' W 002°57'3 2.5
2017-Jan-15 20:33N 47°09' W 002°59'2 2.1
2017-Jan-15 19:30N 47°07' W 002°60'2 2.4
2017-Jan-15 18:33N 47°04' W 002°60'2 2.4
2017-Jan-15 17:33N 47°02' W 002°58'2 1.3
2017-Jan-15 16:24N 47°02' W 002°56'3 3.4
2017-Jan-15 15:33N 47°04' W 002°58'3 3.2
2017-Jan-15 14:33N 47°07' W 003°00'2 2.2
2017-Jan-15 13:33N 47°05' W 003°00'3 2.7
2017-Jan-15 12:33N 47°03' W 002°58'3 2.8
2017-Jan-15 11:33N 47°00' W 002°56'3 2.8
2017-Jan-15 10:33N 46°58' W 002°53'3 2.8
2017-Jan-15 09:30N 47°01' W 002°55'3 2.9
2017-Jan-15 08:33N 47°03' W 002°57'3 3.4
2017-Jan-15 07:33N 47°06' W 002°60'3 3.2
2017-Jan-15 06:27N 47°09' W 002°57'3 3.1
2017-Jan-15 05:30N 47°11' W 002°54'2 1.6
2017-Jan-15 04:33N 47°10' W 002°56'3 3.2
2017-Jan-15 03:33N 47°08' W 002°59'3 2.6
2017-Jan-15 02:33N 47°05' W 002°59'3 2.8
2017-Jan-15 01:33N 47°03' W 002°57'6 2.0
2017-Jan-14 22:33N 47°07' W 002°50'3 2.9
2017-Jan-14 21:33N 47°09' W 002°51'3 2.5
2017-Jan-14 20:33N 47°10' W 002°54'2 1.7
2017-Jan-14 19:33N 47°12' W 002°55'3 2.6
2017-Jan-14 18:33N 47°10' W 002°58'2 2.0
2017-Jan-14 17:33N 47°10' W 002°55'3 2.7
2017-Jan-14 16:33N 47°11' W 002°51'2 1.6
2017-Jan-14 15:33N 47°12' W 002°53'2 1.8
2017-Jan-14 14:33N 47°13' W 002°52'2 2.2
2017-Jan-14 13:33N 47°13' W 002°48'3 2.8
2017-Jan-14 12:33N 47°11' W 002°49'3 2.9
2017-Jan-14 11:33N 47°08' W 002°50'1 1.3
2017-Jan-14 10:33N 47°08' W 002°51'3 3.0
2017-Jan-14 09:33N 47°11' W 002°54'1 0.8
2017-Jan-14 08:33N 47°11' W 002°53'2 1.6
2017-Jan-14 07:33N 47°12' W 002°55'3 2.8
2017-Jan-14 06:33N 47°10' W 002°58'2 2.2
2017-Jan-14 05:33N 47°10' W 002°55'  
Track history (hours):
 
Tides and Currents Weather Stations Pressure Air Temp Water Temp Dewpoint Dewpoint Depression Visibility Wind Speed Wind Dir Waves Ship Positions

F/V Le Dolmen

Last reported at 2017-Jan-24 05:22 UTC. Time now 2017-Jan-24 07:10 UTC.
Position N 47°44' W 003°22'.

Length 18 m.

Type: Fishing. MMSI: 228374000.

Date/timePositionNaut miles runAvg speedWind from/ knotsBaromVisibWave heightAir tempDewpointWater temp
2017-Jan-24 05:22N 47°44' W 003°22'0 0.0
2017-Jan-23 23:15N 47°44' W 003°22'0 0.0
2017-Jan-23 21:12N 47°44' W 003°22'0 0.0
2017-Jan-23 20:04N 47°44' W 003°22'0 0.0
2017-Jan-23 19:09N 47°44' W 003°22'0 0.0
2017-Jan-23 18:27N 47°44' W 003°22'0 0.0
2017-Jan-23 17:23N 47°44' W 003°22'0 0.0
2017-Jan-23 16:33N 47°44' W 003°22'0 0.0
2017-Jan-23 15:33N 47°44' W 003°22'0 0.0
2017-Jan-23 14:33N 47°44' W 003°22'0 0.0
2017-Jan-23 13:33N 47°44' W 003°22'0 0.0
2017-Jan-23 12:33N 47°44' W 003°22'0 0.0
2017-Jan-23 11:33N 47°44' W 003°22'0 0.0
2017-Jan-23 10:34N 47°44' W 003°22'0 0.0
2017-Jan-23 09:33N 47°44' W 003°22'0 0.0
2017-Jan-23 08:34N 47°44' W 003°22'0 0.0
2017-Jan-23 07:34N 47°44' W 003°22'0 0.0
2017-Jan-23 06:34N 47°44' W 003°22'0 0.0
2017-Jan-23 05:34N 47°44' W 003°22'0 0.0
2017-Jan-23 04:34N 47°44' W 003°22'0 0.0
2017-Jan-23 03:34N 47°44' W 003°22'0 0.0
2017-Jan-23 02:34N 47°44' W 003°22'0 0.0
2017-Jan-23 01:34N 47°44' W 003°22'0 0.0
2017-Jan-23 00:34N 47°44' W 003°22'0 0.1
2017-Jan-22 23:33N 47°44' W 003°22'0 0.1
2017-Jan-22 22:34N 47°44' W 003°22'8 8.0
2017-Jan-22 21:34N 47°36' W 003°18'10 9.6
2017-Jan-22 20:33N 47°28' W 003°11'9 9.1
2017-Jan-22 19:33N 47°20' W 003°03'9 9.2
2017-Jan-22 18:33N 47°12' W 002°57'2 1.5
2017-Jan-22 17:33N 47°13' W 002°56'3 2.8
2017-Jan-22 16:33N 47°12' W 002°60'3 3.1
2017-Jan-22 15:33N 47°09' W 002°58'3 3.1
2017-Jan-22 14:33N 47°06' W 003°00'2 2.4
2017-Jan-22 13:33N 47°08' W 003°03'3 3.0
2017-Jan-22 12:33N 47°05' W 003°04'3 3.0
2017-Jan-22 11:33N 47°02' W 003°03'3 3.0
2017-Jan-22 10:33N 46°60' W 002°60'3 3.1
2017-Jan-22 09:33N 46°58' W 002°56'3 3.0
2017-Jan-22 08:27N 46°58' W 002°51'3 3.2
2017-Jan-22 07:33N 46°59' W 002°48'3 2.6
2017-Jan-22 06:33N 46°57' W 002°45'3 3.0
2017-Jan-22 05:30N 46°56' W 002°41'1 1.2
2017-Jan-22 04:33N 46°55' W 002°42'3 2.9
2017-Jan-22 03:26N 46°58' W 002°45'4 2.0
2017-Jan-22 01:16N 46°55' W 002°40'3 2.6
2017-Jan-22 00:10N 46°58' W 002°40'2 2.4
2017-Jan-21 23:08N 46°58' W 002°43'15 1.4
2017-Jan-21 12:28N 46°43' W 002°48'3 1.7
2017-Jan-21 10:33N 46°40' W 002°49'3 2.8
2017-Jan-21 09:33N 46°42' W 002°51'2 2.2
2017-Jan-21 08:33N 46°43' W 002°48'4 3.1
2017-Jan-21 07:23N 46°44' W 002°43'7 8.5
2017-Jan-21 06:34N 46°49' W 002°37'3 2.6
2017-Jan-21 05:33N 46°51' W 002°40'3 3.1
2017-Jan-21 04:33N 46°53' W 002°43'3 2.8
2017-Jan-21 03:33N 46°56' W 002°43'2 1.9
2017-Jan-21 02:33N 46°57' W 002°41'3 2.8
2017-Jan-21 01:33N 46°57' W 002°45'3 2.7
2017-Jan-21 00:33N 46°59' W 002°48'3 2.9
2017-Jan-20 23:33N 47°00' W 002°44'3 3.2
2017-Jan-20 22:27N 46°57' W 002°42'2 2.2
2017-Jan-20 21:33N 46°56' W 002°39'3 2.5
2017-Jan-20 20:32N 46°59' W 002°41'3 3.0
2017-Jan-20 19:33N 46°59' W 002°45'3 3.2
2017-Jan-20 18:33N 46°59' W 002°50'3 3.2
2017-Jan-20 17:33N 46°59' W 002°54'3 1.3
2017-Jan-20 15:21N 47°00' W 002°51'2 3.0
2017-Jan-20 14:33N 46°59' W 002°54'2 2.0
2017-Jan-20 13:30N 46°60' W 002°56'3 3.0
2017-Jan-20 12:33N 47°02' W 002°58'2 2.1
2017-Jan-20 11:33N 47°00' W 002°58'2 2.0
2017-Jan-20 10:21N 46°59' W 002°55'2 1.7
2017-Jan-20 09:09N 46°58' W 002°52'2 3.0
2017-Jan-20 08:33N 46°57' W 002°55'16 5.2
2017-Jan-20 05:30N 47°10' W 002°42'9 9.0
2017-Jan-20 04:33N 47°18' W 002°35'4 4.4
2017-Jan-20 03:32N 47°21' W 002°31'0 0.0
2017-Jan-20 02:32N 47°21' W 002°31'2 2.0
2017-Jan-20 01:33N 47°20' W 002°33'9 8.7
2017-Jan-20 00:33N 47°16' W 002°45'1 1.5
2017-Jan-19 23:33N 47°15' W 002°47'2 1.9
2017-Jan-19 22:33N 47°13' W 002°47'3 3.1
2017-Jan-19 21:33N 47°10' W 002°49'3 2.8
2017-Jan-19 20:33N 47°08' W 002°49'3 3.1
2017-Jan-19 19:33N 47°05' W 002°50'3 2.8
2017-Jan-19 18:30N 47°02' W 002°52'3 3.1
2017-Jan-19 17:30N 46°59' W 002°52'3 2.1
2017-Jan-19 16:12N 47°00' W 002°56'1 2.2
2017-Jan-19 15:33N 46°60' W 002°54'1 0.7
2017-Jan-19 13:33N 46°59' W 002°52'1 0.7
2017-Jan-19 11:33N 46°59' W 002°50'2 2.0
2017-Jan-19 10:33N 46°60' W 002°53'2 2.3
2017-Jan-19 09:33N 46°59' W 002°50'3 2.6
2017-Jan-19 08:33N 46°58' W 002°53'3 2.7
2017-Jan-19 07:33N 46°58' W 002°57'2 2.1
2017-Jan-19 06:33N 46°59' W 002°60'3 3.0
2017-Jan-19 05:33N 46°58' W 002°56'2 1.5
2017-Jan-19 04:18N 46°59' W 002°55'16 5.8
2017-Jan-19 01:33N 47°12' W 002°41'11 9.6
2017-Jan-19 00:24N 47°21' W 002°31'0 0.0
2017-Jan-18 23:21N 47°21' W 002°31'27 0.6
2017-Jan-17 00:33N 46°58' W 002°52'3 2.8
2017-Jan-16 23:33N 46°60' W 002°56'3 3.1
2017-Jan-16 22:33N 47°02' W 002°58'3 3.3
2017-Jan-16 21:33N 47°06' W 003°00'3 3.4
2017-Jan-16 20:33N 47°09' W 002°59'4 3.6
2017-Jan-16 19:33N 47°12' W 002°60'0 0.2
2017-Jan-16 18:33N 47°12' W 002°60'3 2.9
2017-Jan-16 17:33N 47°09' W 002°59'3 2.9
2017-Jan-16 16:33N 47°06' W 002°60'3 2.8
2017-Jan-16 15:33N 47°04' W 002°57'1 0.6
2017-Jan-16 14:30N 47°04' W 002°58'3 3.3
2017-Jan-16 13:33N 47°07' W 003°00'2 2.3
2017-Jan-16 12:33N 47°09' W 002°59'3 3.4
2017-Jan-16 11:33N 47°11' W 002°54'2 1.6
2017-Jan-16 10:33N 47°12' W 002°56'3 2.8
2017-Jan-16 09:33N 47°10' W 002°59'3 2.8
2017-Jan-16 08:33N 47°10' W 002°55'2 1.8
2017-Jan-16 07:33N 47°10' W 002°57'2 2.4
2017-Jan-16 06:33N 47°12' W 002°56'3 2.9
2017-Jan-16 05:33N 47°13' W 002°52'5 5.4
2017-Jan-16 04:33N 47°16' W 002°45'8 8.4
2017-Jan-16 03:33N 47°20' W 002°34'2 0.9
2017-Jan-16 01:33N 47°19' W 002°37'9 9.2
2017-Jan-16 00:33N 47°16' W 002°49'3 3.0
2017-Jan-15 23:33N 47°15' W 002°53'3 2.7
2017-Jan-15 22:33N 47°13' W 002°55'2 2.5
2017-Jan-15 21:33N 47°11' W 002°57'3 2.5
2017-Jan-15 20:33N 47°09' W 002°59'2 2.1
2017-Jan-15 19:30N 47°07' W 002°60'2 2.4
2017-Jan-15 18:33N 47°04' W 002°60'2 2.4
2017-Jan-15 17:33N 47°02' W 002°58'2 1.3
2017-Jan-15 16:24N 47°02' W 002°56'3 3.4
2017-Jan-15 15:33N 47°04' W 002°58'3 3.2
2017-Jan-15 14:33N 47°07' W 003°00'2 2.2
2017-Jan-15 13:33N 47°05' W 003°00'3 2.7
2017-Jan-15 12:33N 47°03' W 002°58'3 2.8
2017-Jan-15 11:33N 47°00' W 002°56'3 2.8
2017-Jan-15 10:33N 46°58' W 002°53'3 2.8
2017-Jan-15 09:30N 47°01' W 002°55'3 2.9
2017-Jan-15 08:33N 47°03' W 002°57'3 3.4
2017-Jan-15 07:33N 47°06' W 002°60'3 3.2
2017-Jan-15 06:27N 47°09' W 002°57'3 3.1
2017-Jan-15 05:30N 47°11' W 002°54'2 1.6
2017-Jan-15 04:33N 47°10' W 002°56'3 3.2
2017-Jan-15 03:33N 47°08' W 002°59'3 2.6
2017-Jan-15 02:33N 47°05' W 002°59'3 2.8
2017-Jan-15 01:33N 47°03' W 002°57'6 2.0
2017-Jan-14 22:33N 47°07' W 002°50'3 2.9
2017-Jan-14 21:33N 47°09' W 002°51'3 2.5
2017-Jan-14 20:33N 47°10' W 002°54'2 1.7
2017-Jan-14 19:33N 47°12' W 002°55'3 2.6
2017-Jan-14 18:33N 47°10' W 002°58'2 2.0
2017-Jan-14 17:33N 47°10' W 002°55'3 2.7
2017-Jan-14 16:33N 47°11' W 002°51'2 1.6
2017-Jan-14 15:33N 47°12' W 002°53'2 1.8
2017-Jan-14 14:33N 47°13' W 002°52'2 2.2
2017-Jan-14 13:33N 47°13' W 002°48'3 2.8
2017-Jan-14 12:33N 47°11' W 002°49'3 2.9
2017-Jan-14 11:33N 47°08' W 002°50'1 1.3
2017-Jan-14 10:33N 47°08' W 002°51'3 3.0
2017-Jan-14 09:33N 47°11' W 002°54'1 0.8
2017-Jan-14 08:33N 47°11' W 002°53'2 1.6
2017-Jan-14 07:33N 47°12' W 002°55'3 2.8
2017-Jan-14 06:33N 47°10' W 002°58'2 2.2
2017-Jan-14 05:33N 47°10' W 002°55'  

Dump ship's entire track history